createdAt,value
2023-01-17T00:03:33.629Z,2.36
2023-01-17T00:08:01.067Z,2.33
2023-01-17T00:25:20.047Z,2.31
2023-01-17T00:29:28.511Z,2.28
2023-01-17T00:33:36.898Z,2.27
2023-01-17T01:03:29.414Z,2.25
2023-01-17T01:07:56.919Z,2.22
2023-01-17T01:12:24.336Z,2.21
2023-01-17T01:16:51.325Z,2.20
2023-01-17T01:21:10.236Z,2.18
2023-01-17T01:25:46.044Z,2.17
2023-01-17T01:42:58.564Z,2.19
2023-01-17T01:47:21.782Z,2.18
2023-01-17T02:04:44.283Z,2.23
2023-01-17T02:09:11.993Z,2.22
2023-01-17T02:13:40.577Z,2.20
2023-01-17T02:18:25.608Z,2.21
2023-01-17T02:22:55.440Z,2.25
2023-01-17T02:31:33.158Z,2.35
2023-01-17T02:36:10.393Z,2.38
2023-01-17T02:40:39.574Z,2.40
2023-01-17T02:44:58.251Z,2.44
2023-01-17T03:12:34.687Z,2.70
2023-01-17T03:17:03.492Z,2.72
2023-01-17T03:21:32.645Z,2.74
2023-01-17T03:26:01.821Z,2.75
2023-01-17T03:30:20.890Z,2.80
2023-01-17T03:34:47.590Z,2.83
2023-01-17T03:39:16.773Z,2.86
2023-01-17T03:43:39.023Z,2.88
2023-01-17T04:09:20.668Z,3.09
2023-01-17T04:13:49.479Z,3.09
2023-01-17T04:18:18.695Z,3.09
2023-01-17T04:22:39.801Z,3.11
2023-01-17T04:26:50.072Z,3.13
2023-01-17T05:08:33.613Z,3.37
2023-01-17T05:12:32.571Z,3.38
2023-01-17T05:16:54.407Z,3.39
2023-01-17T05:21:13.638Z,3.41
2023-01-17T05:25:44.196Z,3.42
2023-01-17T05:52:28.682Z,3.59
2023-01-17T05:56:57.397Z,3.59
2023-01-17T06:01:20.396Z,3.61
2023-01-17T06:05:42.059Z,3.63
2023-01-17T06:09:51.998Z,3.64
2023-01-17T06:27:09.771Z,3.76
2023-01-17T06:31:38.603Z,3.77
2023-01-17T06:35:57.066Z,3.79
2023-01-17T06:40:27.016Z,3.83
2023-01-17T07:01:08.632Z,3.99
2023-01-17T07:05:37.990Z,4.02
2023-01-17T07:10:07.345Z,4.05
2023-01-17T07:14:26.893Z,4.08
2023-01-17T07:18:54.841Z,4.09
2023-01-17T07:23:14.895Z,4.11
2023-01-17T07:27:30.835Z,4.14
2023-01-17T07:31:34.533Z,4.17
2023-01-17T07:35:21.363Z,4.20
2023-01-17T07:39:38.606Z,4.24
2023-01-17T07:43:57.391Z,4.25
2023-01-17T09:00:04.483Z,4.98
2023-01-17T09:04:10.292Z,5.06
2023-01-17T09:08:15.103Z,5.15
2023-01-17T09:12:25.948Z,5.26
2023-01-17T09:16:49.059Z,5.37
2023-01-17T09:21:18.523Z,5.52
2023-01-17T09:25:40.199Z,5.64
2023-01-17T09:34:10.593Z,5.79
2023-01-17T09:56:59.805Z,6.08
2023-01-17T10:01:04.121Z,6.06
2023-01-17T10:05:31.597Z,6.07
2023-01-17T10:09:54.428Z,6.17
2023-01-17T10:14:35.243Z,6.27
2023-01-17T10:19:22.224Z,6.43
2023-01-17T11:28:33.922Z,6.41
2023-01-17T11:33:02.964Z,6.31
2023-01-17T11:37:31.701Z,6.25
2023-01-17T11:41:53.563Z,6.20
2023-01-17T11:46:21.886Z,6.16
2023-01-17T11:51:01.578Z,6.18
2023-01-17T11:55:26.644Z,6.22
2023-01-17T12:22:23.975Z,6.24
2023-01-17T12:27:11.309Z,6.26
2023-01-17T12:31:41.709Z,6.32
2023-01-17T12:36:07.748Z,6.34
2023-01-17T12:40:31.373Z,6.42
2023-01-17T13:01:39.999Z,6.59
2023-01-17T13:06:10.745Z,6.69
2023-01-17T13:10:46.707Z,6.74
2023-01-17T13:15:08.835Z,6.75
2023-01-17T13:19:03.096Z,6.69
2023-01-17T13:23:24.746Z,6.66
2023-01-17T13:27:45.457Z,6.63
2023-01-17T14:06:19.064Z,6.03
2023-01-17T14:10:09.838Z,5.69
2023-01-17T14:14:32.701Z,5.39
2023-01-17T14:18:31.409Z,5.17
2023-01-17T14:22:59.512Z,5.01
2023-01-17T14:27:28.499Z,4.94
2023-01-17T14:31:57.911Z,4.83
2023-01-17T14:36:19.735Z,4.65
2023-01-17T14:52:19.501Z,4.44
2023-01-17T14:56:29.863Z,4.31
2023-01-17T15:00:50.504Z,4.13
2023-01-17T15:05:18.764Z,4.01
2023-01-17T15:09:27.888Z,3.92
2023-01-17T15:13:49.721Z,3.87
2023-01-17T15:18:18.592Z,3.83
2023-01-17T15:22:41.994Z,3.78
2023-01-17T15:26:51.243Z,3.71
2023-01-17T15:31:04.576Z,3.60
2023-01-17T15:35:19.875Z,3.50
2023-01-17T15:39:28.645Z,3.41
2023-01-17T15:43:42.114Z,3.33
2023-01-17T15:48:21.949Z,3.28
2023-01-17T15:52:56.124Z,3.22
2023-01-17T15:57:37.384Z,3.16
2023-01-17T16:23:16.820Z,2.94
2023-01-17T16:27:45.591Z,2.86
2023-01-17T16:32:06.639Z,2.79
2023-01-17T16:36:17.763Z,2.72
2023-01-17T16:40:45.369Z,2.67
2023-01-17T16:45:03.252Z,2.63
2023-01-17T16:53:33.226Z,2.56
2023-01-17T16:58:02.734Z,2.49
2023-01-17T17:02:33.328Z,2.43
2023-01-17T17:20:02.528Z,2.24
2023-01-17T17:24:19.800Z,2.15
2023-01-17T17:28:48.410Z,2.08
2023-01-17T17:33:20.235Z,2.02
2023-01-17T17:59:07.373Z,1.89
2023-01-17T18:03:18.926Z,1.85
2023-01-17T18:07:49.382Z,1.80
2023-01-17T18:29:20.930Z,1.66
2023-01-17T18:33:50.095Z,1.60
2023-01-17T18:38:10.004Z,1.55
2023-01-17T18:59:54.367Z,1.41
2023-01-17T19:04:28.304Z,1.38
2023-01-17T19:30:31.675Z,1.28
2023-01-17T19:35:00.648Z,1.25
2023-01-17T19:39:23.447Z,1.22
2023-01-17T19:43:51.192Z,1.18
2023-01-17T20:09:36.286Z,1.05
2023-01-17T20:14:05.120Z,1.03
2023-01-17T20:26:35.874Z,1.06
2023-01-17T20:31:04.869Z,1.03
2023-01-17T20:35:33.519Z,1.00
2023-01-17T20:40:01.798Z,0.97
2023-01-17T21:10:13.877Z,0.88
2023-01-17T21:14:43.212Z,0.83
2023-01-17T21:19:05.448Z,0.79
2023-01-17T21:46:23.930Z,0.54
2023-01-17T21:50:52.803Z,0.44
2023-01-17T21:55:22.904Z,0.34
2023-01-17T21:59:51.588Z,0.26
2023-01-17T22:04:19.468Z,0.22
2023-01-17T22:08:49.024Z,0.19
2023-01-17T22:32:45.110Z,0.27
2023-01-17T22:37:14.303Z,0.29
2023-01-17T22:41:37.015Z,0.31
2023-01-17T22:45:56.287Z,0.27
2023-01-17T23:04:05.919Z,0.32
2023-01-17T23:08:34.659Z,0.29
2023-01-17T23:40:09.866Z,0.13
2023-01-17T23:44:39.176Z,0.08
